Аэропорт: им. Гейдара Алиева. Баку

ICAO: UBBB

METAR:
2020-06-04 03:00:00
UBBB 040300Z 33020G30KT CAVOK 20/15 Q1010 R88/D NOSIG
METAR:
2020-06-03 23:05:00
TAF UBBB 032305Z 0400/0424 34024G34KT 9999 SCT012 SCT100 TX25/0410Z TN18/0402Z TEMPO 0400/0406 FEW050CB BKN100 PROB40 TEMPO 0406/0412 -TSRA SCT050CB BKN050